sensor_id;sensor_type;location;lat;lon;timestamp;temperature;humidity
23083;DHT22;11709;52.420;10.538;2023-04-03T00:00:04;1.10;99.90
23083;DHT22;11709;52.420;10.538;2023-04-03T00:04:07;1.10;99.90
23083;DHT22;11709;52.420;10.538;2023-04-03T00:08:10;1.00;99.90
23083;DHT22;11709;52.420;10.538;2023-04-03T00:12:12;1.00;99.90
23083;DHT22;11709;52.420;10.538;2023-04-03T00:16:15;0.90;99.90
23083;DHT22;11709;52.420;10.538;2023-04-03T00:20:17;0.90;99.90
23083;DHT22;11709;52.420;10.538;2023-04-03T00:24:20;0.80;99.90
23083;DHT22;11709;52.420;10.538;2023-04-03T00:28:22;0.70;34.60
23083;DHT22;11709;52.420;10.538;2023-04-03T00:32:25;0.60;28.20
23083;DHT22;11709;52.420;10.538;2023-04-03T00:36:27;0.60;35.80
23083;DHT22;11709;52.420;10.538;2023-04-03T00:40:36;0.50;40.70
23083;DHT22;11709;52.420;10.538;2023-04-03T00:48:45;0.50;43.90
23083;DHT22;11709;52.420;10.538;2023-04-03T00:52:47;0.40;39.00
23083;DHT22;11709;52.420;10.538;2023-04-03T00:56:52;0.30;47.10
23083;DHT22;11709;52.420;10.538;2023-04-03T01:00:57;0.30;52.10
23083;DHT22;11709;52.420;10.538;2023-04-03T01:05:01;0.20;58.70
23083;DHT22;11709;52.420;10.538;2023-04-03T01:09:04;0.20;56.90
23083;DHT22;11709;52.420;10.538;2023-04-03T01:13:29;0.10;64.70
23083;DHT22;11709;52.420;10.538;2023-04-03T01:21:52;0.00;81.50
23083;DHT22;11709;52.420;10.538;2023-04-03T01:25:54;0.00;80.50
23083;DHT22;11709;52.420;10.538;2023-04-03T01:29:57;-0.10;94.30
23083;DHT22;11709;52.420;10.538;2023-04-03T01:34:00;-0.10;91.60
23083;DHT22;11709;52.420;10.538;2023-04-03T01:38:03;-0.10;94.40
23083;DHT22;11709;52.420;10.538;2023-04-03T01:42:06;-0.10;93.20
23083;DHT22;11709;52.420;10.538;2023-04-03T01:46:08;-0.20;89.60
23083;DHT22;11709;52.420;10.538;2023-04-03T01:50:11;-0.30;90.20
23083;DHT22;11709;52.420;10.538;2023-04-03T01:54:14;-0.30;91.20
23083;DHT22;11709;52.420;10.538;2023-04-03T01:58:16;-0.30;99.90
23083;DHT22;11709;52.420;10.538;2023-04-03T02:02:19;-0.40;99.90
23083;DHT22;11709;52.420;10.538;2023-04-03T02:06:21;-0.50;99.90
23083;DHT22;11709;52.420;10.538;2023-04-03T02:10:23;-0.50;99.90
23083;DHT22;11709;52.420;10.538;2023-04-03T02:14:26;-0.50;99.90
23083;DHT22;11709;52.420;10.538;2023-04-03T02:18:28;-0.50;99.90
23083;DHT22;11709;52.420;10.538;2023-04-03T02:22:30;-0.40;99.90
23083;DHT22;11709;52.420;10.538;2023-04-03T02:26:32;-0.40;99.90
23083;DHT22;11709;52.420;10.538;2023-04-03T02:30:34;-0.50;99.90
23083;DHT22;11709;52.420;10.538;2023-04-03T02:34:37;-0.50;99.90
23083;DHT22;11709;52.420;10.538;2023-04-03T02:38:38;-0.50;99.90
23083;DHT22;11709;52.420;10.538;2023-04-03T02:42:41;-0.40;99.90
23083;DHT22;11709;52.420;10.538;2023-04-03T02:46:43;-0.50;99.90
23083;DHT22;11709;52.420;10.538;2023-04-03T02:50:46;-0.50;99.90
23083;DHT22;11709;52.420;10.538;2023-04-03T02:54:48;-0.50;99.90
23083;DHT22;11709;52.420;10.538;2023-04-03T02:58:50;-0.60;99.90
23083;DHT22;11709;52.420;10.538;2023-04-03T03:02:52;-0.60;99.90
23083;DHT22;11709;52.420;10.538;2023-04-03T03:06:54;-0.70;99.90
23083;DHT22;11709;52.420;10.538;2023-04-03T03:10:56;-0.70;99.90
23083;DHT22;11709;52.420;10.538;2023-04-03T03:14:59;-0.70;99.90
23083;DHT22;11709;52.420;10.538;2023-04-03T03:19:01;-0.80;99.90
23083;DHT22;11709;52.420;10.538;2023-04-03T03:23:03;-0.80;99.90
23083;DHT22;11709;52.420;10.538;2023-04-03T03:27:05;-0.80;99.90
23083;DHT22;11709;52.420;10.538;2023-04-03T03:31:07;-0.80;99.90
23083;DHT22;11709;52.420;10.538;2023-04-03T03:35:10;-0.80;99.90
23083;DHT22;11709;52.420;10.538;2023-04-03T03:39:13;-0.80;99.90
23083;DHT22;11709;52.420;10.538;2023-04-03T03:43:16;-0.80;99.90
23083;DHT22;11709;52.420;10.538;2023-04-03T03:47:19;-0.90;99.90
23083;DHT22;11709;52.420;10.538;2023-04-03T03:51:21;-0.90;99.90
23083;DHT22;11709;52.420;10.538;2023-04-03T03:55:24;-0.90;99.90
23083;DHT22;11709;52.420;10.538;2023-04-03T03:59:26;-0.90;99.90
23083;DHT22;11709;52.420;10.538;2023-04-03T04:03:29;-1.00;99.90
23083;DHT22;11709;52.420;10.538;2023-04-03T04:07:31;-1.10;99.90
23083;DHT22;11709;52.420;10.538;2023-04-03T04:11:34;-1.10;99.90
23083;DHT22;11709;52.420;10.538;2023-04-03T04:15:36;-1.20;99.90
23083;DHT22;11709;52.420;10.538;2023-04-03T04:19:39;-1.20;99.90
23083;DHT22;11709;52.420;10.538;2023-04-03T04:23:41;-1.20;99.90
23083;DHT22;11709;52.420;10.538;2023-04-03T04:27:44;-1.30;99.90
23083;DHT22;11709;52.420;10.538;2023-04-03T04:31:46;-1.30;99.90
23083;DHT22;11709;52.420;10.538;2023-04-03T04:35:49;-1.40;99.90
23083;DHT22;11709;52.420;10.538;2023-04-03T04:39:53;-1.30;99.90
23083;DHT22;11709;52.420;10.538;2023-04-03T04:43:55;-1.40;99.90
23083;DHT22;11709;52.420;10.538;2023-04-03T04:47:58;-1.40;99.90
23083;DHT22;11709;52.420;10.538;2023-04-03T04:52:00;-1.50;99.90
23083;DHT22;11709;52.420;10.538;2023-04-03T04:56:03;-2.50;99.90
23083;DHT22;11709;52.420;10.538;2023-04-03T05:00:06;-2.80;99.90
23083;DHT22;11709;52.420;10.538;2023-04-03T05:04:09;-2.80;99.90
23083;DHT22;11709;52.420;10.538;2023-04-03T05:08:13;-2.70;99.90
23083;DHT22;11709;52.420;10.538;2023-04-03T05:12:16;-2.70;99.90
23083;DHT22;11709;52.420;10.538;2023-04-03T05:16:18;-1.40;99.90
23083;DHT22;11709;52.420;10.538;2023-04-03T05:20:21;-1.40;99.90
23083;DHT22;11709;52.420;10.538;2023-04-03T05:24:24;-1.30;99.90
23083;DHT22;11709;52.420;10.538;2023-04-03T05:28:27;-1.20;99.90
23083;DHT22;11709;52.420;10.538;2023-04-03T05:32:30;-1.20;99.90
23083;DHT22;11709;52.420;10.538;2023-04-03T05:36:32;-1.10;99.90
23083;DHT22;11709;52.420;10.538;2023-04-03T05:40:35;-1.00;99.90
23083;DHT22;11709;52.420;10.538;2023-04-03T05:44:38;-1.00;99.90
23083;DHT22;11709;52.420;10.538;2023-04-03T05:48:40;-0.80;99.90
23083;DHT22;11709;52.420;10.538;2023-04-03T05:52:45;-0.70;99.90
23083;DHT22;11709;52.420;10.538;2023-04-03T05:56:49;-0.60;99.90
23083;DHT22;11709;52.420;10.538;2023-04-03T06:00:52;-0.60;99.90
23083;DHT22;11709;52.420;10.538;2023-04-03T06:04:54;-0.50;99.90
23083;DHT22;11709;52.420;10.538;2023-04-03T06:08:57;-0.40;99.90
23083;DHT22;11709;52.420;10.538;2023-04-03T06:12:59;-0.30;99.90
23083;DHT22;11709;52.420;10.538;2023-04-03T06:17:02;-0.20;99.90
23083;DHT22;11709;52.420;10.538;2023-04-03T06:21:05;-0.10;99.90
23083;DHT22;11709;52.420;10.538;2023-04-03T06:25:09;0.10;99.90
23083;DHT22;11709;52.420;10.538;2023-04-03T06:29:12;0.20;99.90
23083;DHT22;11709;52.420;10.538;2023-04-03T06:33:14;0.40;99.90
23083;DHT22;11709;52.420;10.538;2023-04-03T06:37:20;0.50;99.90
23083;DHT22;11709;52.420;10.538;2023-04-03T06:41:22;0.70;99.90
23083;DHT22;11709;52.420;10.538;2023-04-03T06:45:25;0.80;99.90
23083;DHT22;11709;52.420;10.538;2023-04-03T06:49:27;1.00;99.90
23083;DHT22;11709;52.420;10.538;2023-04-03T06:53:30;1.10;99.90
23083;DHT22;11709;52.420;10.538;2023-04-03T06:57:33;1.30;99.90
23083;DHT22;11709;52.420;10.538;2023-04-03T07:01:35;1.50;99.90
23083;DHT22;11709;52.420;10.538;2023-04-03T07:05:38;1.70;99.90
23083;DHT22;11709;52.420;10.538;2023-04-03T07:09:41;1.90;99.90
23083;DHT22;11709;52.420;10.538;2023-04-03T07:13:44;2.10;99.90
23083;DHT22;11709;52.420;10.538;2023-04-03T07:17:46;2.30;99.90
23083;DHT22;11709;52.420;10.538;2023-04-03T07:21:49;2.50;99.90
23083;DHT22;11709;52.420;10.538;2023-04-03T07:25:52;2.80;99.90
23083;DHT22;11709;52.420;10.538;2023-04-03T07:29:54;3.00;99.90
23083;DHT22;11709;52.420;10.538;2023-04-03T07:33:57;3.30;99.90
23083;DHT22;11709;52.420;10.538;2023-04-03T07:38:00;3.70;99.90
23083;DHT22;11709;52.420;10.538;2023-04-03T07:42:02;4.00;99.90
23083;DHT22;11709;52.420;10.538;2023-04-03T07:46:05;4.20;99.90
23083;DHT22;11709;52.420;10.538;2023-04-03T07:50:08;4.60;99.90
23083;DHT22;11709;52.420;10.538;2023-04-03T07:54:11;4.80;99.90
23083;DHT22;11709;52.420;10.538;2023-04-03T07:58:16;5.10;99.90
23083;DHT22;11709;52.420;10.538;2023-04-03T08:02:19;5.30;99.90
23083;DHT22;11709;52.420;10.538;2023-04-03T08:06:21;5.40;99.90
23083;DHT22;11709;52.420;10.538;2023-04-03T08:10:24;5.60;99.90
23083;DHT22;11709;52.420;10.538;2023-04-03T08:14:26;5.90;99.90
23083;DHT22;11709;52.420;10.538;2023-04-03T08:18:29;6.20;99.90
23083;DHT22;11709;52.420;10.538;2023-04-03T08:22:33;6.50;99.90
23083;DHT22;11709;52.420;10.538;2023-04-03T08:26:39;6.60;99.90
23083;DHT22;11709;52.420;10.538;2023-04-03T08:30:42;6.70;99.90
23083;DHT22;11709;52.420;10.538;2023-04-03T08:34:45;6.70;99.90
23083;DHT22;11709;52.420;10.538;2023-04-03T08:38:48;6.80;99.90
23083;DHT22;11709;52.420;10.538;2023-04-03T08:43:03;6.90;99.90
23083;DHT22;11709;52.420;10.538;2023-04-03T08:47:15;7.00;99.90
23083;DHT22;11709;52.420;10.538;2023-04-03T08:51:17;7.10;99.90
23083;DHT22;11709;52.420;10.538;2023-04-03T08:55:29;7.20;99.90
23083;DHT22;11709;52.420;10.538;2023-04-03T08:59:36;7.40;99.90
23083;DHT22;11709;52.420;10.538;2023-04-03T09:03:41;7.70;99.90
23083;DHT22;11709;52.420;10.538;2023-04-03T09:07:46;7.70;99.90
23083;DHT22;11709;52.420;10.538;2023-04-03T09:16:36;7.80;99.90
23083;DHT22;11709;52.420;10.538;2023-04-03T09:20:46;8.20;99.90
23083;DHT22;11709;52.420;10.538;2023-04-03T09:29:24;9.00;99.90
23083;DHT22;11709;52.420;10.538;2023-04-03T09:33:27;9.50;99.90
23083;DHT22;11709;52.420;10.538;2023-04-03T09:37:42;9.70;99.90
23083;DHT22;11709;52.420;10.538;2023-04-03T09:42:00;10.40;99.90
23083;DHT22;11709;52.420;10.538;2023-04-03T09:46:24;10.20;98.40
23083;DHT22;11709;52.420;10.538;2023-04-03T09:50:25;9.70;96.30
23083;DHT22;11709;52.420;10.538;2023-04-03T09:54:37;9.70;98.50
23083;DHT22;11709;52.420;10.538;2023-04-03T09:58:44;9.70;99.80
23083;DHT22;11709;52.420;10.538;2023-04-03T10:02:57;9.60;97.30
23083;DHT22;11709;52.420;10.538;2023-04-03T10:06:56;9.10;97.20
23083;DHT22;11709;52.420;10.538;2023-04-03T10:11:10;8.80;97.20
23083;DHT22;11709;52.420;10.538;2023-04-03T10:15:17;8.80;99.90
23083;DHT22;11709;52.420;10.538;2023-04-03T10:23:45;8.70;97.20
23083;DHT22;11709;52.420;10.538;2023-04-03T10:36:41;10.10;95.00
23083;DHT22;11709;52.420;10.538;2023-04-03T10:49:34;9.80;94.20
23083;DHT22;11709;52.420;10.538;2023-04-03T10:53:57;10.60;93.60
23083;DHT22;11709;52.420;10.538;2023-04-03T10:58:00;10.60;91.20
23083;DHT22;11709;52.420;10.538;2023-04-03T11:02:31;10.00;91.10
23083;DHT22;11709;52.420;10.538;2023-04-03T11:06:41;9.60;90.40
23083;DHT22;11709;52.420;10.538;2023-04-03T11:10:45;9.50;90.50
23083;DHT22;11709;52.420;10.538;2023-04-03T11:14:51;9.70;90.80
23083;DHT22;11709;52.420;10.538;2023-04-03T11:19:14;11.40;90.60
23083;DHT22;11709;52.420;10.538;2023-04-03T11:23:29;11.10;80.90
23083;DHT22;11709;52.420;10.538;2023-04-03T11:27:27;10.80;78.40
23083;DHT22;11709;52.420;10.538;2023-04-03T11:35:46;11.40;77.20
23083;DHT22;11709;52.420;10.538;2023-04-03T11:40:33;11.00;77.70
23083;DHT22;11709;52.420;10.538;2023-04-03T11:44:23;11.00;75.50
23083;DHT22;11709;52.420;10.538;2023-04-03T11:56:49;9.80;79.30
23083;DHT22;11709;52.420;10.538;2023-04-03T12:00:57;9.70;80.30
23083;DHT22;11709;52.420;10.538;2023-04-03T12:05:26;9.40;87.30
23083;DHT22;11709;52.420;10.538;2023-04-03T12:09:35;9.40;81.10
23083;DHT22;11709;52.420;10.538;2023-04-03T12:17:57;11.80;77.50
23083;DHT22;11709;52.420;10.538;2023-04-03T12:26:21;12.40;74.40
23083;DHT22;11709;52.420;10.538;2023-04-03T12:30:29;12.10;71.90
23083;DHT22;11709;52.420;10.538;2023-04-03T12:34:50;13.00;73.60
23083;DHT22;11709;52.420;10.538;2023-04-03T12:39:09;13.70;69.40
23083;DHT22;11709;52.420;10.538;2023-04-03T12:47:35;12.90;68.40
23083;DHT22;11709;52.420;10.538;2023-04-03T12:51:42;12.10;66.60
23083;DHT22;11709;52.420;10.538;2023-04-03T12:55:46;12.30;70.50
23083;DHT22;11709;52.420;10.538;2023-04-03T12:59:49;12.10;66.80
23083;DHT22;11709;52.420;10.538;2023-04-03T13:03:58;11.90;68.20
23083;DHT22;11709;52.420;10.538;2023-04-03T13:16:16;9.90;95.50
23083;DHT22;11709;52.420;10.538;2023-04-03T13:40:53;10.70;99.40
23083;DHT22;11709;52.420;10.538;2023-04-03T13:49:36;12.30;97.10
23083;DHT22;11709;52.420;10.538;2023-04-03T13:58:00;13.40;92.00
23083;DHT22;11709;52.420;10.538;2023-04-03T14:06:14;14.60;84.40
23083;DHT22;11709;52.420;10.538;2023-04-03T14:10:17;14.00;91.80
23083;DHT22;11709;52.420;10.538;2023-04-03T14:30:38;12.00;95.90
23083;DHT22;11709;52.420;10.538;2023-04-03T14:42:47;13.50;91.20
23083;DHT22;11709;52.420;10.538;2023-04-03T14:50:53;14.50;85.20
23083;DHT22;11709;52.420;10.538;2023-04-03T15:11:07;12.20;89.60
23083;DHT22;11709;52.420;10.538;2023-04-03T15:15:10;11.70;94.30
23083;DHT22;11709;52.420;10.538;2023-04-03T15:27:18;10.40;92.40
23083;DHT22;11709;52.420;10.538;2023-04-03T15:39:25;10.80;82.10
23083;DHT22;11709;52.420;10.538;2023-04-03T15:43:28;11.20;95.00
23083;DHT22;11709;52.420;10.538;2023-04-03T15:47:30;12.10;93.80
23083;DHT22;11709;52.420;10.538;2023-04-03T16:11:50;9.50;90.80
23083;DHT22;11709;52.420;10.538;2023-04-03T16:15:52;9.60;91.70
23083;DHT22;11709;52.420;10.538;2023-04-03T16:19:55;9.80;96.70
23083;DHT22;11709;52.420;10.538;2023-04-03T16:32:03;9.10;95.70
23083;DHT22;11709;52.420;10.538;2023-04-03T16:48:15;8.40;93.70
23083;DHT22;11709;52.420;10.538;2023-04-03T17:04:25;8.70;95.40
23083;DHT22;11709;52.420;10.538;2023-04-03T17:36:46;7.50;99.90
23083;DHT22;11709;52.420;10.538;2023-04-03T18:29:29;6.20;99.90
23083;DHT22;11709;52.420;10.538;2023-04-03T18:33:33;5.70;99.90
23083;DHT22;11709;52.420;10.538;2023-04-03T18:57:48;5.10;99.90
23083;DHT22;11709;52.420;10.538;2023-04-03T19:13:58;5.80;99.90
23083;DHT22;11709;52.420;10.538;2023-04-03T19:18:00;4.80;99.90
23083;DHT22;11709;52.420;10.538;2023-04-03T19:30:11;5.30;99.90
23083;DHT22;11709;52.420;10.538;2023-04-03T19:34:14;4.40;99.90
23083;DHT22;11709;52.420;10.538;2023-04-03T19:38:16;5.00;99.90
23083;DHT22;11709;52.420;10.538;2023-04-03T19:42:19;3.70;99.90
23083;DHT22;11709;52.420;10.538;2023-04-03T20:26:52;4.30;99.90
23083;DHT22;11709;52.420;10.538;2023-04-03T20:34:57;4.40;99.90
23083;DHT22;11709;52.420;10.538;2023-04-03T20:39:00;4.60;99.90
23083;DHT22;11709;52.420;10.538;2023-04-03T20:51:12;4.20;99.90
23083;DHT22;11709;52.420;10.538;2023-04-03T20:55:15;3.60;99.90
23083;DHT22;11709;52.420;10.538;2023-04-03T21:20:30;2.10;99.90
23083;DHT22;11709;52.420;10.538;2023-04-03T21:56:54;2.30;99.90
23083;DHT22;11709;52.420;10.538;2023-04-03T22:01:07;1.80;99.90
23083;DHT22;11709;52.420;10.538;2023-04-03T22:49:37;1.60;99.90
23083;DHT22;11709;52.420;10.538;2023-04-03T22:53:39;1.10;99.90
23083;DHT22;11709;52.420;10.538;2023-04-03T22:57:45;1.30;99.90
23083;DHT22;11709;52.420;10.538;2023-04-03T23:01:48;1.70;99.90
23083;DHT22;11709;52.420;10.538;2023-04-03T23:05:51;2.20;99.90
23083;DHT22;11709;52.420;10.538;2023-04-03T23:18:00;0.80;99.90
